Time;durP1;ratioP1;P1;durP2;ratioP2;P2;SDS_P1;SDS_P2;PMS_P1;PMS_P2;Temp;Humidity;BMP_temperature;BMP_pressure;BME280_temperature;BME280_humidity;BME280_pressure;Samples;Min_cycle;Max_cycle;Signal;HPM_P1;HPM_P2
2022/11/23 00:00:03;;;;;;;130.13;63.30;;;;;;;0.55;97.21;100057.19;123695;1109;104323;-79
2022/11/23 00:02:36;;;;;;;139.17;67.67;;;;;;;0.51;96.54;100055.17;123669;1109;102185;-79
2022/11/23 00:05:09;;;;;;;123.07;66.53;;;;;;;0.53;96.87;100069.08;124025;1108;104411;-80
2022/11/23 00:07:40;;;;;;;120.03;61.27;;;;;;;0.52;97.20;100070.77;124024;1109;104341;-79
2022/11/23 00:10:12;;;;;;;121.43;63.37;;;;;;;0.54;96.66;100070.87;123780;1109;104214;-80
2022/11/23 00:12:43;;;;;;;118.87;60.17;;;;;;;0.55;96.96;100077.84;123726;1108;104290;-80
2022/11/23 00:15:18;;;;;;;136.23;64.57;;;;;;;0.54;96.91;100082.09;123664;1106;104364;-80
2022/11/23 00:17:50;;;;;;;145.73;68.17;;;;;;;0.56;97.04;100074.45;123717;1108;104287;-80
2022/11/23 00:20:22;;;;;;;127.40;62.37;;;;;;;0.57;96.74;100065.92;123806;1109;104275;-80
2022/11/23 00:22:53;;;;;;;122.47;62.43;;;;;;;0.57;97.02;100073.67;124381;1109;104290;-80
2022/11/23 00:25:24;;;;;;;122.73;65.13;;;;;;;0.59;96.80;100077.23;124366;1109;104238;-79
2022/11/23 00:27:55;;;;;;;114.80;61.60;;;;;;;0.62;97.11;100079.15;124122;1109;104201;-80
2022/11/23 00:30:27;;;;;;;118.93;60.67;;;;;;;0.63;97.63;100074.09;123949;1109;104175;-80
2022/11/23 00:32:59;;;;;;;106.75;53.80;;;;;;;0.64;97.44;100080.14;123795;1109;104400;-79
2022/11/23 00:35:30;;;;;;;103.17;51.27;;;;;;;0.58;96.44;100090.05;124732;1109;104287;-79
2022/11/23 00:38:01;;;;;;;103.70;54.57;;;;;;;0.52;96.98;100095.70;123865;1109;104373;-80
2022/11/23 00:40:32;;;;;;;106.57;55.30;;;;;;;0.54;97.39;100087.25;123915;1105;104306;-79
2022/11/23 00:43:04;;;;;;;129.80;56.40;;;;;;;0.57;97.30;100094.33;123649;1109;104447;-80
2022/11/23 00:45:35;;;;;;;109.83;54.70;;;;;;;0.59;97.21;100095.31;123828;1109;104329;-80
2022/11/23 00:48:07;;;;;;;129.23;50.17;;;;;;;0.61;97.39;100087.67;124392;1108;104332;-80
2022/11/23 00:50:38;;;;;;;115.17;50.33;;;;;;;0.63;97.54;100086.12;123893;1109;104178;-80
2022/11/23 00:53:10;;;;;;;110.53;51.43;;;;;;;0.65;97.53;100097.44;123856;1109;104265;-79
2022/11/23 00:55:41;;;;;;;109.53;52.57;;;;;;;0.68;98.41;100092.48;123981;1109;102250;-80
2022/11/23 00:58:12;;;;;;;120.90;50.87;;;;;;;0.71;97.77;100075.50;123928;1109;104342;-80
2022/11/23 01:00:44;;;;;;;111.53;49.77;;;;;;;0.71;97.67;100069.45;124432;1109;104357;-80
2022/11/23 01:03:15;;;;;;;122.57;53.13;;;;;;;0.70;97.45;100072.81;124045;1109;104241;-80
2022/11/23 01:05:46;;;;;;;110.10;52.20;;;;;;;0.71;97.54;100074.61;124088;1108;104169;-79
2022/11/23 01:08:18;;;;;;;120.87;49.70;;;;;;;0.71;97.87;100075.50;124264;1109;104345;-80
2022/11/23 01:10:49;;;;;;;128.30;52.00;;;;;;;0.71;97.69;100075.50;124282;1109;104309;-79
2022/11/23 01:13:20;;;;;;;109.13;50.50;;;;;;;0.74;97.38;100072.24;124480;1109;104173;-80
2022/11/23 01:15:52;;;;;;;105.10;49.77;;;;;;;0.77;98.05;100076.73;124329;1109;104185;-79
2022/11/23 01:18:24;;;;;;;120.67;48.73;;;;;;;0.78;98.09;100065.59;124131;1109;104255;-81
2022/11/23 01:20:56;;;;;;;121.70;47.27;;;;;;;0.78;97.87;100065.59;124540;1108;102642;-80
2022/11/23 01:23:30;;;;;;;118.67;50.23;;;;;;;0.75;97.68;100068.88;124289;1109;102105;-80
2022/11/23 01:26:07;;;;;;;170.00;52.80;;;;;;;0.76;97.96;100060.31;124341;1109;102131;-79
2022/11/23 01:28:40;;;;;;;137.75;47.40;;;;;;;0.77;98.26;100072.45;124049;1109;104181;-79
2022/11/23 01:31:15;;;;;;;136.13;47.10;;;;;;;0.76;98.23;100070.64;124927;1108;104309;-79
2022/11/23 01:33:52;;;;;;;111.53;41.80;;;;;;;0.75;97.81;100070.54;125120;1108;104198;-79
2022/11/23 01:36:26;;;;;;;132.90;43.37;;;;;;;0.73;97.82;100069.55;125367;1106;102032;-80
2022/11/23 01:38:58;;;;;;;133.10;42.40;;;;;;;0.71;97.59;100057.42;124939;1107;104204;-79
2022/11/23 01:41:41;;;;;;;127.30;39.47;;;;;;;0.68;97.51;100053.74;124962;1106;104292;-76
2022/11/23 01:44:30;;;;;;;103.07;35.67;;;;;;;0.66;97.68;100058.80;125170;1104;102128;-76
2022/11/23 01:50:09;;;;;;;118.80;30.53;;;;;;;0.62;97.67;100064.54;125099;1109;101846;-80
2022/11/23 01:58:09;;;;;;;100.43;31.57;;;;;;;0.61;97.82;100054.11;126190;1099;102982;-80
2022/11/23 02:00:41;;;;;;;122.20;33.70;;;;;;;0.59;97.73;100056.59;125030;1109;104249;-80
2022/11/23 02:03:13;;;;;;;100.77;33.70;;;;;;;0.61;97.95;100056.69;124829;1109;104288;-79
2022/11/23 02:05:49;;;;;;;107.73;33.60;;;;;;;0.63;98.10;100056.02;125122;1108;104389;-80
2022/11/23 02:08:21;;;;;;;138.83;40.27;;;;;;;0.66;97.86;100051.06;124442;1109;104153;-80
2022/11/23 02:10:53;;;;;;;132.57;41.27;;;;;;;0.68;98.42;100057.21;124497;1109;104346;-80
2022/11/23 02:13:25;;;;;;;109.87;40.13;;;;;;;0.73;98.08;100054.06;124464;1109;102263;-80
2022/11/23 02:15:58;;;;;;;120.23;39.63;;;;;;;0.74;98.33;100051.58;124145;1109;104419;-80
2022/11/23 02:18:31;;;;;;;114.75;37.80;;;;;;;0.74;98.19;100049.00;124259;1109;104468;-77
2022/11/23 02:21:04;;;;;;;139.13;39.50;;;;;;;0.74;98.29;100049.00;124497;1109;104639;-77
2022/11/23 02:23:47;;;;;;;121.23;38.70;;;;;;;0.75;98.15;100049.88;124313;1109;104287;-81
2022/11/23 02:26:30;;;;;;;125.90;39.07;;;;;;;0.73;98.17;100052.36;125042;1109;104205;-77
2022/11/23 02:29:06;;;;;;;107.67;41.10;;;;;;;0.72;98.22;100055.75;126038;1098;107782;-79
2022/11/23 02:31:37;;;;;;;82.30;39.47;;;;;;;0.73;98.47;100062.69;125314;1105;102925;-79
2022/11/23 02:34:08;;;;;;;92.77;41.83;;;;;;;0.75;98.25;100070.54;125301;1105;101683;-77
2022/11/23 02:36:47;;;;;;;84.27;34.73;;;;;;;0.75;98.20;100062.80;125412;1105;102078;-78
2022/11/23 02:39:27;;;;;;;85.87;37.60;;;;;;;0.73;98.28;100066.97;125384;1096;119123;-79
2022/11/23 02:42:00;;;;;;;83.47;36.70;;;;;;;0.72;97.99;100068.67;125617;1105;104181;-78
2022/11/23 02:44:42;;;;;;;78.53;35.97;;;;;;;0.71;98.33;100056.53;125398;1100;102318;-77
2022/11/23 02:47:14;;;;;;;94.33;37.53;;;;;;;0.71;98.21;100054.84;124536;1108;102063;-79
2022/11/23 02:49:48;;;;;;;90.37;38.27;;;;;;;0.74;98.29;100061.02;124600;1105;104367;-79
2022/11/23 02:52:19;;;;;;;103.03;36.63;;;;;;;0.75;98.03;100047.30;124829;1105;104374;-78
2022/11/23 02:54:51;;;;;;;85.17;39.27;;;;;;;0.75;98.49;100052.46;125894;1100;104172;-76
2022/11/23 02:57:23;;;;;;;81.13;39.07;;;;;;;0.76;98.43;100051.68;126191;1096;102847;-73
2022/11/23 02:59:54;;;;;;;106.70;39.97;;;;;;;0.76;98.18;100056.84;126285;1099;102015;-79
2022/11/23 03:02:25;;;;;;;88.03;39.80;;;;;;;0.76;98.97;100064.59;125083;1109;102073;-75
2022/11/23 03:04:58;;;;;;;85.25;37.10;;;;;;;0.78;98.29;100060.41;125779;1100;102340;-79
2022/11/23 03:07:37;;;;;;;95.17;33.87;;;;;;;0.78;98.00;100063.92;125990;1100;102752;31
2022/11/23 03:10:10;;;;;;;74.50;35.20;;;;;;;0.75;98.32;100057.63;125334;1108;101746;-79
2022/11/23 03:12:43;;;;;;;91.67;34.60;;;;;;;0.71;97.95;100061.70;125462;1108;104305;-79
2022/11/23 03:15:18;;;;;;;81.37;36.60;;;;;;;0.70;97.90;100062.48;125500;1108;101820;-80
2022/11/23 03:17:49;;;;;;;78.40;38.13;;;;;;;0.70;98.12;100057.31;125215;1109;104217;-76
2022/11/23 03:20:21;;;;;;;86.40;36.77;;;;;;;0.73;98.75;100062.69;125328;1108;104261;-78
2022/11/23 03:22:58;;;;;;;81.77;35.60;;;;;;;0.74;98.64;100058.44;126277;1096;101595;-75
2022/11/23 03:25:30;;;;;;;82.67;35.37;;;;;;;0.74;98.38;100048.11;126128;1105;101661;-75
2022/11/23 03:28:02;;;;;;;86.00;35.43;;;;;;;0.74;98.18;100050.69;125976;1096;102371;-76
2022/11/23 03:30:33;;;;;;;75.20;32.17;;;;;;;0.69;98.10;100046.10;125475;1104;118060;-79
2022/11/23 03:33:06;;;;;;;77.73;32.33;;;;;;;0.63;98.46;100039.64;125733;1105;101961;-75
2022/11/23 03:35:37;;;;;;;86.97;35.07;;;;;;;0.63;98.23;100035.36;125681;1103;101744;-77
2022/11/23 03:38:23;;;;;;;78.13;35.67;;;;;;;0.66;98.81;100035.56;125512;1104;101788;-75
2022/11/23 03:40:55;;;;;;;93.60;35.23;;;;;;;0.69;98.54;100035.77;125963;1096;102804;-80
2022/11/23 03:43:46;;;;;;;85.40;37.30;;;;;;;0.68;98.54;100033.97;125641;1105;101967;-78
2022/11/23 03:46:18;;;;;;;73.17;31.27;;;;;;;0.71;98.45;100033.30;125602;1108;101847;-78
2022/11/23 03:48:49;;;;;;;88.83;32.30;;;;;;;0.68;98.22;100040.83;125769;1096;102994;-79
2022/11/23 03:51:20;;;;;;;88.47;35.80;;;;;;;0.66;98.40;100035.56;125563;1096;102042;-77
2022/11/23 03:56:54;;;;;;;88.80;32.60;;;;;;;0.65;98.54;100035.46;126621;1096;103415;-75
2022/11/23 03:59:26;;;;;;;87.70;35.77;;;;;;;0.64;98.24;100043.98;126379;1096;102965;-75
2022/11/23 04:01:57;;;;;;;79.93;35.13;;;;;;;0.64;98.57;100042.33;125884;1105;101687;-76
2022/11/23 04:04:30;;;;;;;78.15;33.98;;;;;;;0.68;98.32;100056.33;126125;1099;102232;-75
2022/11/23 04:07:14;;;;;;;81.90;35.23;;;;;;;0.70;98.98;100047.91;125743;1105;101868;-78
2022/11/23 04:09:51;;;;;;;79.13;36.60;;;;;;;0.74;98.92;100040.36;124534;1109;104252;-80
2022/11/23 04:12:54;;;;;;;71.27;33.17;;;;;;;0.73;98.42;100047.19;124869;1105;104182;-79
2022/11/23 04:15:25;;;;;;;68.50;32.50;;;;;;;0.73;98.29;100052.36;124053;1105;104240;-80
2022/11/23 04:17:57;;;;;;;80.37;34.03;;;;;;;0.77;99.00;100056.06;125187;1108;102360;-77
2022/11/23 04:20:28;;;;;;;75.80;34.63;;;;;;;0.79;98.95;100060.52;124558;1105;104265;-76
2022/11/23 04:22:59;;;;;;;68.53;33.40;;;;;;;0.82;98.88;100063.31;123627;1108;104181;-76
2022/11/23 04:25:31;;;;;;;71.17;34.63;;;;;;;0.81;98.97;100058.96;123395;1105;104374;-78
2022/11/23 04:28:03;;;;;;;69.93;32.70;;;;;;;0.80;99.00;100059.73;123303;1108;104334;-78
2022/11/23 04:30:34;;;;;;;75.93;34.07;;;;;;;0.81;98.97;100058.96;123502;1105;104338;-78
2022/11/23 04:33:06;;;;;;;80.37;35.10;;;;;;;0.82;98.65;100068.48;123464;1105;104268;-77
2022/11/23 04:35:37;;;;;;;71.50;33.60;;;;;;;0.83;98.85;100074.56;123651;1105;104172;-78
2022/11/23 04:38:09;;;;;;;66.13;33.43;;;;;;;0.87;99.06;100079.12;123680;1105;104213;-77
2022/11/23 04:40:40;;;;;;;70.97;33.67;;;;;;;0.89;98.97;100078.45;123657;1105;104236;-77
2022/11/23 04:43:12;;;;;;;74.80;33.20;;;;;;;0.94;99.87;100077.87;123692;1106;104172;-78
2022/11/23 04:45:44;;;;;;;70.17;33.27;;;;;;;0.94;99.78;100060.67;123764;1105;104232;-77
2022/11/23 04:48:22;;;;;;;68.50;32.27;;;;;;;0.95;99.21;100052.14;124026;1105;104185;-78
2022/11/23 04:50:54;;;;;;;82.97;32.93;;;;;;;0.94;99.31;100059.78;124013;1106;104306;-78
2022/11/23 04:53:30;;;;;;;72.97;34.27;;;;;;;0.93;99.66;100053.70;123787;1105;104296;-77
2022/11/23 04:56:01;;;;;;;72.37;33.57;;;;;;;0.91;99.10;100047.55;123884;1105;104300;-77
2022/11/23 04:58:35;;;;;;;70.63;33.33;;;;;;;0.89;99.30;100049.14;123879;1106;104239;-78
2022/11/23 05:01:07;;;;;;;67.77;32.80;;;;;;;0.88;99.19;100047.34;123585;1106;104405;-78
2022/11/23 05:03:41;;;;;;;73.13;34.40;;;;;;;0.85;99.13;100034.22;123914;1108;104270;-78
2022/11/23 05:06:12;;;;;;;67.75;32.40;;;;;;;0.83;99.09;99999.66;123688;1106;104654;-78
2022/11/23 05:08:46;;;;;;;71.43;32.70;;;;;;;0.76;99.17;99994.86;123665;1106;104347;-77
2022/11/23 05:11:29;;;;;;;69.47;32.60;;;;;;;0.75;99.41;100024.97;123813;1106;104445;-77
2022/11/23 05:14:01;;;;;;;73.17;35.53;;;;;;;0.78;99.50;100029.42;123709;1109;104338;-76
2022/11/23 05:16:33;;;;;;;66.63;32.33;;;;;;;0.81;99.54;100046.05;123367;1109;104326;-75
2022/11/23 05:19:05;;;;;;;65.97;31.57;;;;;;;0.83;99.25;100038.40;123511;1105;102131;-77
2022/11/23 05:21:36;;;;;;;67.10;32.20;;;;;;;0.85;99.58;100039.39;123670;1105;104387;-78
2022/11/23 05:24:08;;;;;;;75.40;34.97;;;;;;;0.87;100.00;100037.79;123683;1105;104350;-75
2022/11/23 05:26:39;;;;;;;72.70;33.53;;;;;;;0.88;99.29;100043.06;123744;1105;104185;-76
2022/11/23 05:29:11;;;;;;;68.87;32.90;;;;;;;0.92;99.65;100041.59;123672;1109;104313;-77
2022/11/23 05:31:42;;;;;;;72.30;32.93;;;;;;;0.93;99.47;100043.37;123571;1105;104236;-78
2022/11/23 05:34:13;;;;;;;76.23;34.27;;;;;;;0.95;99.51;100038.30;123511;1105;104306;-77
2022/11/23 05:36:49;;;;;;;69.40;31.73;;;;;;;0.96;99.90;100038.41;123938;1109;104240;-77
2022/11/23 05:39:20;;;;;;;74.37;34.37;;;;;;;0.98;99.73;100042.01;123495;1105;104389;-77
2022/11/23 05:41:54;;;;;;;71.07;33.20;;;;;;;0.98;99.42;100047.17;123679;1105;104459;-78
2022/11/23 05:44:42;;;;;;;77.43;32.53;;;;;;;0.96;99.43;100048.73;123653;1105;104178;-76
2022/11/23 05:47:18;;;;;;;74.70;33.07;;;;;;;1.01;99.39;100052.55;124192;1106;104361;-78
2022/11/23 05:49:51;;;;;;;71.07;31.43;;;;;;;1.02;100.00;100050.84;123632;1109;104261;-75
2022/11/23 05:52:26;;;;;;;72.83;31.70;;;;;;;1.04;99.68;100037.25;123867;1105;104361;-77
2022/11/23 05:54:57;;;;;;;72.07;31.20;;;;;;;1.08;100.00;100041.80;123913;1105;104235;-75
2022/11/23 05:57:28;;;;;;;69.37;32.30;;;;;;;1.16;100.00;100033.67;124659;1105;104265;-76
2022/11/23 05:59:59;;;;;;;71.27;32.00;;;;;;;1.20;100.00;100039.14;125076;1105;104236;-74
2022/11/23 06:02:44;;;;;;;63.52;29.23;;;;;;;1.25;100.00;100035.16;124928;1105;104270;-76
2022/11/23 06:05:15;;;;;;;66.30;29.90;;;;;;;1.30;100.00;100038.04;124859;1109;104907;-76
2022/11/23 06:07:55;;;;;;;67.33;30.03;;;;;;;1.36;100.00;100038.44;124018;1105;104316;-76
2022/11/23 06:10:30;;;;;;;64.20;28.70;;;;;;;1.42;100.00;100032.78;124035;1106;102500;-77
2022/11/23 06:13:05;;;;;;;66.83;29.00;;;;;;;1.48;100.00;100030.59;125094;1105;102194;-76
2022/11/23 06:15:37;;;;;;;65.03;29.03;;;;;;;1.54;100.00;100030.07;125550;1109;102231;-79
2022/11/23 06:18:11;;;;;;;62.40;28.37;;;;;;;1.57;100.00;100030.27;125545;1105;102699;-76
2022/11/23 06:20:49;;;;;;;64.47;29.33;;;;;;;1.60;100.00;100027.88;125151;1109;102085;-76
2022/11/23 06:23:21;;;;;;;66.43;29.43;;;;;;;1.66;100.00;100032.56;125404;1105;103990;-75
2022/11/23 06:25:56;;;;;;;69.87;31.30;;;;;;;1.72;100.00;100017.42;124938;1105;104338;-76
2022/11/23 06:28:30;;;;;;;65.70;29.17;;;;;;;1.78;100.00;100013.52;124417;1109;104179;-76
2022/11/23 06:31:09;;;;;;;70.13;32.07;;;;;;;1.83;100.00;100010.34;125015;1109;104217;-75
2022/11/23 06:33:42;;;;;;;72.73;33.03;;;;;;;1.88;100.00;100011.52;124414;1105;105508;-78
2022/11/23 06:36:14;;;;;;;68.73;33.50;;;;;;;1.92;100.00;100016.98;124059;1105;103466;-77
2022/11/23 06:38:49;;;;;;;71.77;32.03;;;;;;;1.93;99.95;100025.62;124159;1109;103230;-76
2022/11/23 06:41:24;;;;;;;70.30;31.20;;;;;;;1.94;100.00;100024.84;124011;1105;104226;-79
2022/11/23 06:43:55;;;;;;;65.93;30.97;;;;;;;1.95;100.00;100019.76;124003;1107;104907;-77
2022/11/23 06:46:37;;;;;;;68.00;32.03;;;;;;;1.95;100.00;100022.34;124331;1109;104251;-76
2022/11/23 06:51:57;;;;;;;66.20;30.63;;;;;;;2.01;100.00;100016.67;125804;1096;104360;-74
2022/11/23 06:54:28;;;;;;;63.67;30.73;;;;;;;2.02;100.00;100014.97;124413;1105;104223;-77
2022/11/23 06:59:47;;;;;;;57.87;28.13;;;;;;;2.06;100.00;100001.42;126439;1096;102982;-74
2022/11/23 07:02:19;;;;;;;53.53;27.30;;;;;;;2.07;100.00;100000.61;125175;1109;103306;-74
2022/11/23 07:04:52;;;;;;;56.53;28.03;;;;;;;2.09;99.79;99999.02;124029;1108;110274;-77
2022/11/23 07:07:24;;;;;;;44.00;20.97;;;;;;;2.12;100.00;99996.59;123805;1109;104220;-74
2022/11/23 07:10:01;;;;;;;57.73;29.03;;;;;;;2.15;100.00;99994.19;123846;1106;104406;-75
2022/11/23 07:12:54;;;;;;;59.55;30.25;;;;;;;2.21;100.00;99997.16;123810;1105;104254;-76
2022/11/23 07:15:29;;;;;;;55.27;28.77;;;;;;;2.28;100.00;99995.86;123487;1105;104364;-75
2022/11/23 07:18:13;;;;;;;58.97;30.17;;;;;;;2.29;100.00;99993.36;123689;1105;104265;-76
2022/11/23 07:20:49;;;;;;;63.87;32.27;;;;;;;2.35;100.00;99995.41;125595;1105;102420;-76
2022/11/23 07:23:21;;;;;;;63.10;31.83;;;;;;;2.41;100.00;99997.48;125519;1105;102339;-79
2022/11/23 07:25:52;;;;;;;60.60;30.37;;;;;;;2.41;100.00;99998.36;125455;1105;102385;-76
2022/11/23 07:28:24;;;;;;;64.57;32.27;;;;;;;2.42;100.00;99997.57;125491;1106;102912;-76
2022/11/23 07:30:56;;;;;;;61.57;32.53;;;;;;;2.46;100.00;99993.46;125636;1105;102367;-78
2022/11/23 07:33:33;;;;;;;60.23;33.10;;;;;;;2.48;100.00;99997.06;125410;1105;101943;-77
2022/11/23 07:36:06;;;;;;;66.93;33.37;;;;;;;2.50;100.00;99987.67;125381;1106;103014;-78
2022/11/23 07:38:42;;;;;;;62.93;32.90;;;;;;;2.53;100.00;99989.56;125594;1105;102569;-76
2022/11/23 07:41:14;;;;;;;66.20;31.53;;;;;;;2.55;100.00;99985.36;125522;1105;101624;-78
2022/11/23 07:44:07;;;;;;;66.33;33.83;;;;;;;2.59;100.00;99980.45;125422;1105;102086;-76
2022/11/23 07:46:38;;;;;;;68.83;35.60;;;;;;;2.65;100.00;99977.30;125603;1105;102089;-76
2022/11/23 07:49:09;;;;;;;64.20;33.10;;;;;;;2.72;100.00;99968.22;125427;1108;103469;-75
2022/11/23 07:51:41;;;;;;;62.20;32.03;;;;;;;2.75;100.00;99973.58;125344;1105;103078;-75
2022/11/23 07:54:16;;;;;;;59.23;30.30;;;;;;;2.77;100.00;99977.14;125637;1104;103058;-75
2022/11/23 07:56:47;;;;;;;44.13;23.00;;;;;;;2.81;100.00;99974.82;124826;1105;104258;-76
2022/11/23 07:59:22;;;;;;;59.77;29.07;;;;;;;2.84;100.00;99975.00;124320;1105;104255;-75
2022/11/23 08:01:54;;;;;;;55.40;27.80;;;;;;;2.91;100.00;99980.54;124229;1108;102404;-75
2022/11/23 08:04:29;;;;;;;56.00;26.10;;;;;;;2.92;100.00;99971.97;124808;1105;104175;-75
2022/11/23 08:07:02;;;;;;;52.88;26.00;;;;;;;2.91;100.00;99976.23;124087;1105;102803;-76
2022/11/23 08:09:37;;;;;;;49.27;23.77;;;;;;;2.93;100.00;99969.47;124147;1105;104229;-76
2022/11/23 08:12:07;;;;;;;;;;;;;;;2.93;100.00;99969.47;124017;1105;102846;-78
2022/11/23 08:14:39;;;;;;;55.60;27.60;;;;;;;2.93;100.00;99982.42;123925;1105;103070;-78
2022/11/23 08:17:11;;;;;;;56.67;26.63;;;;;;;2.95;100.00;99970.44;123936;1105;104194;-76
2022/11/23 08:19:44;;;;;;;55.73;25.27;;;;;;;2.96;100.00;99967.05;123894;1105;104185;-76
2022/11/23 08:22:15;;;;;;;50.67;24.47;;;;;;;2.97;100.00;99960.16;123984;1105;104214;-75
2022/11/23 08:24:46;;;;;;;57.67;27.30;;;;;;;2.95;100.00;99957.48;123961;1105;104216;-76
2022/11/23 08:27:18;;;;;;;55.60;27.27;;;;;;;2.97;100.00;99952.38;124252;1105;102092;-75
2022/11/23 08:29:52;;;;;;;56.35;27.65;;;;;;;2.98;100.00;99951.59;124290;1105;104281;-77
2022/11/23 08:32:25;;;;;;;56.07;27.60;;;;;;;2.99;100.00;99953.36;123909;1105;102134;-77
2022/11/23 08:34:56;;;;;;;56.13;27.47;;;;;;;2.99;100.00;99946.49;123886;1105;104211;-74
2022/11/23 08:37:35;;;;;;;59.03;27.20;;;;;;;3.00;100.00;99935.30;123813;1105;102446;-76
2022/11/23 08:40:16;;;;;;;53.90;27.42;;;;;;;3.01;100.00;99937.09;124860;1105;104242;-76
2022/11/23 08:42:50;;;;;;;57.53;27.23;;;;;;;3.02;100.00;99931.12;124972;1105;103087;-77
2022/11/23 08:45:22;;;;;;;50.78;25.15;;;;;;;3.05;100.00;99917.41;124629;1105;103696;-77
2022/11/23 08:47:54;;;;;;;61.03;28.87;;;;;;;3.09;100.00;99916.80;124160;1105;104290;-78
2022/11/23 08:50:29;;;;;;;60.00;30.40;;;;;;;3.17;100.00;99922.41;123892;1105;102072;-77
2022/11/23 08:53:01;;;;;;;53.93;26.80;;;;;;;3.24;100.00;99920.24;124018;1106;104347;-77
2022/11/23 08:55:32;;;;;;;58.53;28.40;;;;;;;3.29;100.00;99924.77;124246;1105;104277;-77
2022/11/23 08:58:06;;;;;;;55.53;28.00;;;;;;;3.29;100.00;99927.36;124231;1105;102114;-77
2022/11/23 09:00:53;;;;;;;55.57;27.57;;;;;;;3.32;100.00;99923.27;124254;1105;104258;-74
2022/11/23 09:03:25;;;;;;;51.27;24.47;;;;;;;3.36;100.00;99919.13;124182;1105;102443;-76
2022/11/23 09:06:00;;;;;;;50.10;24.63;;;;;;;3.39;100.00;99920.17;123974;1105;104382;-78
2022/11/23 09:08:32;;;;;;;50.97;24.03;;;;;;;3.41;100.00;99915.08;123873;1105;104252;-77
2022/11/23 09:11:08;;;;;;;47.37;22.90;;;;;;;3.41;100.00;99915.98;123659;1105;104402;-76
2022/11/23 09:13:40;;;;;;;48.27;23.53;;;;;;;3.41;100.00;99896.92;123905;1105;104147;-76
2022/11/23 09:16:15;;;;;;;45.80;21.40;;;;;;;3.44;100.00;99893.61;124090;1105;102805;-75
2022/11/23 09:18:45;;;;;;;;;;;;;;;3.46;100.00;99885.12;124020;1105;104230;-77
2022/11/23 09:21:18;;;;;;;43.77;21.87;;;;;;;3.49;100.00;99884.37;123823;1105;104171;-77
2022/11/23 09:23:50;;;;;;;43.77;21.63;;;;;;;3.52;100.00;99875.07;124249;1105;104194;-76
2022/11/23 09:26:30;;;;;;;44.10;21.85;;;;;;;3.56;100.00;99874.41;124094;1105;104140;-78
2022/11/23 09:29:05;;;;;;;41.53;20.03;;;;;;;3.62;100.00;99871.25;124040;1105;104194;-81
2022/11/23 09:31:41;;;;;;;43.17;20.17;;;;;;;3.65;100.00;99871.42;123864;1105;104159;-75
2022/11/23 09:34:13;;;;;;;40.63;20.50;;;;;;;3.70;100.00;99861.28;123929;1105;104258;-77
2022/11/23 09:36:52;;;;;;;44.10;21.37;;;;;;;3.78;100.00;99849.59;124011;1105;104290;-77
2022/11/23 09:39:30;;;;;;;38.87;19.33;;;;;;;3.80;100.00;99827.20;124072;1106;104198;-77
2022/11/23 09:42:35;;;;;;;41.60;20.20;;;;;;;3.82;100.00;99825.59;124176;1105;104261;-79
2022/11/23 09:45:22;;;;;;;43.75;22.05;;;;;;;3.84;100.00;99821.37;124089;1105;103630;-76
2022/11/23 09:48:15;;;;;;;45.17;23.07;;;;;;;3.83;100.00;99816.98;125495;1105;101984;-76
2022/11/23 09:50:55;;;;;;;46.50;23.20;;;;;;;3.78;100.00;99810.67;124039;1109;104233;-77
2022/11/23 09:53:33;;;;;;;45.10;24.57;;;;;;;3.72;100.00;99806.04;124055;1105;104178;-76
2022/11/23 09:56:06;;;;;;;48.07;24.60;;;;;;;3.70;100.00;99806.80;124486;1105;104286;-77
2022/11/23 09:58:41;;;;;;;48.30;24.40;;;;;;;3.70;100.00;99804.20;124494;1109;104185;-76
2022/11/23 10:01:16;;;;;;;47.63;22.80;;;;;;;3.71;100.00;99795.58;124338;1105;104287;-76
2022/11/23 10:03:50;;;;;;;45.63;21.60;;;;;;;3.72;100.00;99790.47;124603;1105;104186;-76
2022/11/23 10:06:24;;;;;;;39.73;20.90;;;;;;;3.72;100.00;99784.40;124148;1106;104092;-76
2022/11/23 10:09:19;;;;;;;41.43;21.40;;;;;;;3.72;100.00;99779.21;125744;1105;101427;-77
2022/11/23 10:12:25;;;;;;;38.23;17.60;;;;;;;3.73;100.00;99781.88;125737;1105;102119;-77
2022/11/23 10:15:05;;;;;;;41.53;21.37;;;;;;;3.72;100.00;99764.52;125800;1105;102321;-78
2022/11/23 10:17:55;;;;;;;41.50;21.27;;;;;;;3.75;100.00;99756.89;125757;1105;102586;-78
2022/11/23 10:20:44;;;;;;;45.30;20.87;;;;;;;3.75;100.00;99750.83;125566;1109;101904;-77
2022/11/23 10:23:27;;;;;;;41.77;21.20;;;;;;;3.80;100.00;99738.96;125538;1105;102798;-78
2022/11/23 10:26:00;;;;;;;41.23;20.77;;;;;;;3.84;100.00;99738.31;124085;1105;103678;-79
2022/11/23 10:28:34;;;;;;;45.00;22.17;;;;;;;3.88;100.00;99742.86;124100;1105;102398;-77
2022/11/23 10:31:16;;;;;;;45.80;22.40;;;;;;;3.91;100.00;99735.22;123908;1106;103032;-75
2022/11/23 10:33:58;;;;;;;40.67;21.40;;;;;;;3.92;100.00;99733.51;125298;1105;104207;-77
2022/11/23 10:36:30;;;;;;;45.55;23.75;;;;;;;3.94;100.00;99735.38;124051;1105;104219;-78
2022/11/23 10:39:02;;;;;;;45.27;24.47;;;;;;;3.99;100.00;99733.02;124009;1106;103521;-76
2022/11/23 10:41:35;;;;;;;45.97;24.00;;;;;;;4.05;100.00;99727.21;124441;1109;102335;-75
2022/11/23 10:44:18;;;;;;;46.37;23.73;;;;;;;4.08;100.00;99725.68;124888;1105;102989;-75
2022/11/23 10:46:49;;;;;;;44.93;23.90;;;;;;;4.14;100.00;99717.28;124310;1105;102044;-75
2022/11/23 10:49:27;;;;;;;45.05;24.55;;;;;;;4.21;100.00;99723.69;125078;1096;102768;-77
2022/11/23 10:52:08;;;;;;;44.60;23.17;;;;;;;4.23;100.00;99717.73;124077;1105;104168;-75
2022/11/23 10:54:53;;;;;;;45.53;23.97;;;;;;;4.25;100.00;99705.70;124053;1105;102470;-76
2022/11/23 10:57:37;;;;;;;42.37;22.87;;;;;;;4.28;100.00;99712.75;123963;1105;104258;-80
2022/11/23 11:00:19;;;;;;;44.93;22.73;;;;;;;4.30;100.00;99698.13;124318;1105;104230;-76
2022/11/23 11:02:54;;;;;;;42.03;21.90;;;;;;;4.32;100.00;99699.98;124363;1105;104635;-77
2022/11/23 11:05:33;;;;;;;39.47;20.60;;;;;;;4.35;100.00;99693.15;124124;1106;105053;-79
2022/11/23 11:08:15;;;;;;;41.50;21.53;;;;;;;4.39;100.00;99693.37;124328;1105;102875;-77
2022/11/23 11:11:00;;;;;;;41.70;21.20;;;;;;;4.44;100.00;99680.59;124233;1106;104185;-77
2022/11/23 11:13:40;;;;;;;39.83;20.63;;;;;;;4.48;100.00;99678.22;124386;1105;104198;-76
2022/11/23 11:16:26;;;;;;;43.63;23.30;;;;;;;4.50;100.00;99662.70;124265;1105;102916;-77
2022/11/23 11:18:58;;;;;;;42.83;24.23;;;;;;;4.51;100.00;99654.09;124504;1105;104185;-76
2022/11/23 11:21:33;;;;;;;40.80;21.30;;;;;;;4.54;100.00;99651.64;124406;1105;104162;-78
2022/11/23 11:24:07;;;;;;;39.10;21.63;;;;;;;4.54;100.00;99640.38;124665;1105;102835;-77
2022/11/23 11:26:52;;;;;;;47.13;23.17;;;;;;;4.54;100.00;99645.57;124329;1109;104287;-79
2022/11/23 11:29:34;;;;;;;49.30;24.53;;;;;;;4.57;100.00;99636.20;124291;1108;104238;-77
2022/11/23 11:32:22;;;;;;;42.43;23.67;;;;;;;4.57;100.00;99628.40;125098;1105;104332;-76
2022/11/23 11:35:04;;;;;;;42.23;22.33;;;;;;;4.55;100.00;99632.65;125329;1106;102794;-75
2022/11/23 11:37:45;;;;;;;40.07;21.33;;;;;;;4.55;100.00;99617.06;125041;1105;104205;-76
2022/11/23 11:40:31;;;;;;;40.07;22.33;;;;;;;4.55;100.00;99611.86;125780;1105;102217;-79
2022/11/23 11:43:16;;;;;;;38.97;20.80;;;;;;;4.57;100.00;99610.21;125909;1105;101972;-77
2022/11/23 11:45:57;;;;;;;41.57;20.83;;;;;;;4.62;100.00;99607.82;125856;1105;102637;-76
2022/11/23 11:48:37;;;;;;;38.40;20.80;;;;;;;4.67;100.00;99598.52;125549;1105;102146;-78
2022/11/23 11:51:23;;;;;;;40.10;20.83;;;;;;;4.74;100.00;99599.70;125801;1105;102996;-78